sensor_id;sensor_type;location;lat;lon;timestamp;pressure;altitude;pressure_sealevel;temperature;humidity
55347;BME280;41218;55.700;38.270;2022-07-22T00:00:18;99320.66;;;16.79;67.20
55347;BME280;41218;55.700;38.270;2022-07-22T00:05:21;99293.06;;;16.57;67.28
55347;BME280;41218;55.700;38.270;2022-07-22T00:10:22;99320.88;;;16.65;67.45
55347;BME280;41218;55.700;38.270;2022-07-22T00:15:23;99349.75;;;16.78;67.63
55347;BME280;41218;55.700;38.270;2022-07-22T00:20:24;99350.84;;;16.88;67.14
55347;BME280;41218;55.700;38.270;2022-07-22T00:25:25;99312.59;;;16.57;67.27
55347;BME280;41218;55.700;38.270;2022-07-22T00:35:50;99341.91;;;16.69;67.55
55347;BME280;41218;55.700;38.270;2022-07-22T00:40:50;99358.84;;;16.86;67.30
55347;BME280;41218;55.700;38.270;2022-07-22T00:45:51;99300.16;;;16.35;67.36
55347;BME280;41218;55.700;38.270;2022-07-22T00:50:55;99305.41;;;16.29;67.77
55347;BME280;41218;55.700;38.270;2022-07-22T00:56:09;99364.97;;;16.73;67.75
55347;BME280;41218;55.700;38.270;2022-07-22T01:01:10;99366.63;;;16.71;68.01
55347;BME280;41218;55.700;38.270;2022-07-22T01:06:13;99342.16;;;16.51;68.11
55347;BME280;41218;55.700;38.270;2022-07-22T01:11:33;99333.97;;;16.40;68.17
55347;BME280;41218;55.700;38.270;2022-07-22T01:16:34;99380.28;;;16.61;68.24
55347;BME280;41218;55.700;38.270;2022-07-22T01:21:37;99355.84;;;16.42;68.33
55347;BME280;41218;55.700;38.270;2022-07-22T01:26:37;99339.28;;;16.28;68.50
55347;BME280;41218;55.700;38.270;2022-07-22T01:31:38;99350.44;;;16.28;68.76
55347;BME280;41218;55.700;38.270;2022-07-22T01:36:41;99337.84;;;16.16;68.64
55347;BME280;41218;55.700;38.270;2022-07-22T01:41:42;99358.81;;;16.28;68.80
55347;BME280;41218;55.700;38.270;2022-07-22T01:46:43;99399.44;;;16.59;68.39
55347;BME280;41218;55.700;38.270;2022-07-22T01:51:44;99389.78;;;16.37;68.80
55347;BME280;41218;55.700;38.270;2022-07-22T01:56:45;99353.91;;;16.08;68.90
55347;BME280;41218;55.700;38.270;2022-07-22T02:01:45;99387.03;;;16.33;69.02
55347;BME280;41218;55.700;38.270;2022-07-22T02:06:46;99426.97;;;16.57;68.64
55347;BME280;41218;55.700;38.270;2022-07-22T02:11:47;99371.75;;;16.14;68.67
55347;BME280;41218;55.700;38.270;2022-07-22T02:16:47;99390.72;;;16.27;69.05
55347;BME280;41218;55.700;38.270;2022-07-22T02:21:48;99405.31;;;16.38;69.02
55347;BME280;41218;55.700;38.270;2022-07-22T02:26:49;99378.03;;;16.22;69.04
55347;BME280;41218;55.700;38.270;2022-07-22T02:31:49;99434.19;;;16.55;69.14
55347;BME280;41218;55.700;38.270;2022-07-22T02:36:50;99447.22;;;16.65;68.72
55347;BME280;41218;55.700;38.270;2022-07-22T02:41:51;99432.22;;;16.52;69.03
55347;BME280;41218;55.700;38.270;2022-07-22T02:46:51;99448.88;;;16.59;69.07
55347;BME280;41218;55.700;38.270;2022-07-22T02:51:52;99461.91;;;16.69;68.74
55347;BME280;41218;55.700;38.270;2022-07-22T02:56:53;99448.88;;;16.59;68.69
55347;BME280;41218;55.700;38.270;2022-07-22T03:02:06;99415.44;;;16.25;69.48
55347;BME280;41218;55.700;38.270;2022-07-22T03:07:21;99481.84;;;16.68;69.39
55347;BME280;41218;55.700;38.270;2022-07-22T03:12:24;99448.59;;;16.50;69.34
55347;BME280;41218;55.700;38.270;2022-07-22T03:17:28;99473.47;;;16.68;69.28
55347;BME280;41218;55.700;38.270;2022-07-22T03:22:28;99497.50;;;16.92;68.91
55347;BME280;41218;55.700;38.270;2022-07-22T03:27:29;99463.91;;;16.69;68.97
55347;BME280;41218;55.700;38.270;2022-07-22T03:32:29;99517.34;;;17.01;68.95
55347;BME280;41218;55.700;38.270;2022-07-22T03:37:30;99489.25;;;16.85;68.96
55347;BME280;41218;55.700;38.270;2022-07-22T03:42:31;99514.41;;;17.12;68.56
55347;BME280;41218;55.700;38.270;2022-07-22T03:47:32;99515.28;;;17.06;68.87
55347;BME280;41218;55.700;38.270;2022-07-22T03:52:32;99517.94;;;17.16;68.97
55347;BME280;41218;55.700;38.270;2022-07-22T03:57:36;99509.50;;;17.20;68.84
55347;BME280;41218;55.700;38.270;2022-07-22T04:02:36;99513.66;;;17.35;68.64
55347;BME280;41218;55.700;38.270;2022-07-22T04:07:37;99477.31;;;17.12;68.62
55347;BME280;41218;55.700;38.270;2022-07-22T04:12:38;99515.88;;;17.48;68.58
55347;BME280;41218;55.700;38.270;2022-07-22T04:17:39;99514.66;;;17.49;68.60
55347;BME280;41218;55.700;38.270;2022-07-22T04:22:39;99484.69;;;17.26;68.38
55347;BME280;41218;55.700;38.270;2022-07-22T04:27:40;99531.53;;;17.69;68.29
55347;BME280;41218;55.700;38.270;2022-07-22T04:32:41;99512.19;;;17.54;68.08
55347;BME280;41218;55.700;38.270;2022-07-22T04:50:23;99548.22;;;17.99;67.94
55347;BME280;41218;55.700;38.270;2022-07-22T04:55:30;99543.97;;;18.15;67.54
55347;BME280;41218;55.700;38.270;2022-07-22T05:06:18;99525.22;;;18.12;67.75
55347;BME280;41218;55.700;38.270;2022-07-22T05:11:57;99543.56;;;18.36;67.22
55347;BME280;41218;55.700;38.270;2022-07-22T05:16:58;99504.72;;;18.18;67.07
55347;BME280;41218;55.700;38.270;2022-07-22T05:21:58;99556.81;;;18.76;66.75
55347;BME280;41218;55.700;38.270;2022-07-22T05:26:59;99541.38;;;18.68;66.56
55347;BME280;41218;55.700;38.270;2022-07-22T05:32:03;99518.69;;;18.62;66.40
55347;BME280;41218;55.700;38.270;2022-07-22T05:37:09;99519.78;;;18.68;65.90
55347;BME280;41218;55.700;38.270;2022-07-22T05:42:13;99545.28;;;18.94;66.00
55347;BME280;41218;55.700;38.270;2022-07-22T05:47:13;99575.84;;;19.25;65.55
55347;BME280;41218;55.700;38.270;2022-07-22T05:52:17;99589.00;;;19.44;65.45
55347;BME280;41218;55.700;38.270;2022-07-22T05:57:18;99555.56;;;19.37;65.06
55347;BME280;41218;55.700;38.270;2022-07-22T06:02:21;99568.97;;;19.62;64.75
55347;BME280;41218;55.700;38.270;2022-07-22T06:07:56;99566.31;;;19.75;63.94
55347;BME280;41218;55.700;38.270;2022-07-22T06:13:00;99544.38;;;19.70;64.15
55347;BME280;41218;55.700;38.270;2022-07-22T06:18:01;99558.78;;;19.88;63.58
55347;BME280;41218;55.700;38.270;2022-07-22T06:23:19;99539.75;;;19.96;63.26
55347;BME280;41218;55.700;38.270;2022-07-22T06:28:48;99563.50;;;20.24;63.17
55347;BME280;41218;55.700;38.270;2022-07-22T06:34:03;99580.44;;;20.50;62.49
55347;BME280;41218;55.700;38.270;2022-07-22T06:39:05;99543.31;;;20.29;62.87
55347;BME280;41218;55.700;38.270;2022-07-22T06:44:09;99523.13;;;20.34;62.36
55347;BME280;41218;55.700;38.270;2022-07-22T06:49:10;99564.19;;;20.74;62.29
55347;BME280;41218;55.700;38.270;2022-07-22T06:54:10;99555.75;;;20.74;61.68
55347;BME280;41218;55.700;38.270;2022-07-22T06:59:24;99566.81;;;20.94;61.38
55347;BME280;41218;55.700;38.270;2022-07-22T07:04:24;99555.69;;;20.90;61.19
55347;BME280;41218;55.700;38.270;2022-07-22T07:09:25;99577.09;;;21.13;60.54
55347;BME280;41218;55.700;38.270;2022-07-22T07:14:29;99601.22;;;21.40;60.53
55347;BME280;41218;55.700;38.270;2022-07-22T07:19:30;99588.94;;;21.34;60.09
55347;BME280;41218;55.700;38.270;2022-07-22T07:24:30;99606.31;;;21.45;60.28
55347;BME280;41218;55.700;38.270;2022-07-22T07:29:31;99563.50;;;21.25;59.96
55347;BME280;41218;55.700;38.270;2022-07-22T07:34:32;99582.56;;;21.46;59.76
55347;BME280;41218;55.700;38.270;2022-07-22T07:39:32;99566.22;;;21.41;59.65
55347;BME280;41218;55.700;38.270;2022-07-22T07:44:34;99574.25;;;21.43;59.57
55347;BME280;41218;55.700;38.270;2022-07-22T07:49:34;99582.41;;;21.37;59.70
55347;BME280;41218;55.700;38.270;2022-07-22T07:55:25;99551.72;;;21.17;59.67
55347;BME280;41218;55.700;38.270;2022-07-22T08:00:23;99575.56;;;21.38;59.40
55347;BME280;41218;55.700;38.270;2022-07-22T08:05:40;99612.28;;;21.73;59.58
55347;BME280;41218;55.700;38.270;2022-07-22T08:10:40;99614.41;;;21.81;59.65
55347;BME280;41218;55.700;38.270;2022-07-22T08:21:43;99594.19;;;21.74;59.18
55347;BME280;41218;55.700;38.270;2022-07-22T08:26:47;99559.75;;;21.57;58.53
55347;BME280;41218;55.700;38.270;2022-07-22T08:31:57;99608.78;;;21.94;58.57
55347;BME280;41218;55.700;38.270;2022-07-22T08:36:58;99615.78;;;22.03;58.70
55347;BME280;41218;55.700;38.270;2022-07-22T08:41:59;99580.91;;;21.74;58.41
55347;BME280;41218;55.700;38.270;2022-07-22T08:47:00;99597.97;;;21.67;58.05
55347;BME280;41218;55.700;38.270;2022-07-22T08:52:07;99591.91;;;21.81;56.94
55347;BME280;41218;55.700;38.270;2022-07-22T08:57:07;99592.47;;;21.89;56.66
55347;BME280;41218;55.700;38.270;2022-07-22T09:08:58;99573.50;;;22.15;55.98
55347;BME280;41218;55.700;38.270;2022-07-22T09:14:23;99583.88;;;22.18;55.66
55347;BME280;41218;55.700;38.270;2022-07-22T09:20:17;99599.59;;;22.42;54.98
55347;BME280;41218;55.700;38.270;2022-07-22T09:25:29;99599.94;;;22.44;54.33
55347;BME280;41218;55.700;38.270;2022-07-22T09:30:47;99635.38;;;22.89;53.75
55347;BME280;41218;55.700;38.270;2022-07-22T09:36:02;99632.06;;;23.03;53.57
55347;BME280;41218;55.700;38.270;2022-07-22T09:41:30;99603.69;;;22.97;52.71
55347;BME280;41218;55.700;38.270;2022-07-22T09:46:35;99590.94;;;23.06;52.60
55347;BME280;41218;55.700;38.270;2022-07-22T09:52:00;99614.75;;;23.36;52.69
55347;BME280;41218;55.700;38.270;2022-07-22T09:57:04;99613.50;;;23.37;52.03
55347;BME280;41218;55.700;38.270;2022-07-22T10:02:05;99624.09;;;23.55;52.06
55347;BME280;41218;55.700;38.270;2022-07-22T10:07:19;99591.47;;;23.45;51.39
55347;BME280;41218;55.700;38.270;2022-07-22T10:12:23;99607.53;;;23.35;51.57
55347;BME280;41218;55.700;38.270;2022-07-22T10:18:06;99634.59;;;23.54;51.98
55347;BME280;41218;55.700;38.270;2022-07-22T10:29:28;99612.97;;;23.83;50.37
55347;BME280;41218;55.700;38.270;2022-07-22T10:34:29;99622.88;;;23.96;50.12
55347;BME280;41218;55.700;38.270;2022-07-22T10:39:32;99650.88;;;24.13;49.65
55347;BME280;41218;55.700;38.270;2022-07-22T11:01:31;99649.13;;;24.06;49.90
55347;BME280;41218;55.700;38.270;2022-07-22T11:06:32;99619.75;;;23.94;49.75
55347;BME280;41218;55.700;38.270;2022-07-22T11:17:41;99648.91;;;23.91;50.05
55347;BME280;41218;55.700;38.270;2022-07-22T11:22:46;99639.94;;;23.84;49.98
55347;BME280;41218;55.700;38.270;2022-07-22T11:27:51;99631.97;;;23.91;49.63
55347;BME280;41218;55.700;38.270;2022-07-22T11:33:04;99596.34;;;23.53;49.31
55347;BME280;41218;55.700;38.270;2022-07-22T12:09:05;99596.09;;;24.10;49.27
55347;BME280;41218;55.700;38.270;2022-07-22T12:14:14;99648.34;;;24.55;48.40
55347;BME280;41218;55.700;38.270;2022-07-22T12:19:22;99640.00;;;24.52;47.85
55347;BME280;41218;55.700;38.270;2022-07-22T12:24:38;99607.78;;;24.49;47.29
55347;BME280;41218;55.700;38.270;2022-07-22T12:30:12;99645.19;;;24.81;48.24
55347;BME280;41218;55.700;38.270;2022-07-22T12:35:17;99599.81;;;24.57;47.26
55347;BME280;41218;55.700;38.270;2022-07-22T12:40:20;99594.75;;;24.43;47.63
55347;BME280;41218;55.700;38.270;2022-07-22T12:51:20;99636.06;;;24.58;48.10
55347;BME280;41218;55.700;38.270;2022-07-22T12:56:47;99626.59;;;24.43;47.79
55347;BME280;41218;55.700;38.270;2022-07-22T13:01:50;99612.00;;;24.26;47.98
55347;BME280;41218;55.700;38.270;2022-07-22T13:06:53;99635.41;;;24.36;47.24
55347;BME280;41218;55.700;38.270;2022-07-22T13:11:54;99592.50;;;24.10;47.63
55347;BME280;41218;55.700;38.270;2022-07-22T13:16:55;99604.59;;;24.19;47.93
55347;BME280;41218;55.700;38.270;2022-07-22T13:21:55;99599.25;;;24.12;47.87
55347;BME280;41218;55.700;38.270;2022-07-22T13:27:03;99629.75;;;24.36;47.32
55347;BME280;41218;55.700;38.270;2022-07-22T13:32:03;99597.56;;;24.15;47.86
55347;BME280;41218;55.700;38.270;2022-07-22T13:37:04;99592.50;;;24.10;47.50
55347;BME280;41218;55.700;38.270;2022-07-22T13:42:12;99596.75;;;24.14;47.32
55347;BME280;41218;55.700;38.270;2022-07-22T13:47:23;99636.53;;;24.57;47.67
55347;BME280;41218;55.700;38.270;2022-07-22T13:52:26;99607.63;;;24.44;47.85
55347;BME280;41218;55.700;38.270;2022-07-22T14:16:16;99608.78;;;24.55;46.10
55347;BME280;41218;55.700;38.270;2022-07-22T14:22:47;99638.44;;;24.78;45.93
55347;BME280;41218;55.700;38.270;2022-07-22T14:28:08;99612.88;;;24.64;45.87
55347;BME280;41218;55.700;38.270;2022-07-22T14:33:39;99629.31;;;24.84;46.15
55347;BME280;41218;55.700;38.270;2022-07-22T14:44:03;99622.41;;;24.75;45.91
55347;BME280;41218;55.700;38.270;2022-07-22T14:49:10;99646.78;;;24.82;46.11
55347;BME280;41218;55.700;38.270;2022-07-22T14:54:45;99608.91;;;24.61;45.61
55347;BME280;41218;55.700;38.270;2022-07-22T14:59:46;99649.28;;;24.80;46.12
55347;BME280;41218;55.700;38.270;2022-07-22T15:10:36;99629.81;;;24.64;45.98
55347;BME280;41218;55.700;38.270;2022-07-22T15:15:36;99603.84;;;24.47;46.05
55347;BME280;41218;55.700;38.270;2022-07-22T15:20:38;99616.25;;;24.49;46.02
55347;BME280;41218;55.700;38.270;2022-07-22T15:32:21;99661.53;;;24.68;46.44
55347;BME280;41218;55.700;38.270;2022-07-22T15:37:27;99672.34;;;24.60;46.31
55347;BME280;41218;55.700;38.270;2022-07-22T15:42:30;99636.31;;;24.33;46.12
55347;BME280;41218;55.700;38.270;2022-07-22T15:47:34;99644.47;;;24.31;46.34
55347;BME280;41218;55.700;38.270;2022-07-22T15:53:04;99672.59;;;24.44;46.40
55347;BME280;41218;55.700;38.270;2022-07-22T15:58:06;99653.91;;;24.28;46.98
55347;BME280;41218;55.700;38.270;2022-07-22T16:10:19;99665.66;;;24.26;47.44
55347;BME280;41218;55.700;38.270;2022-07-22T16:15:28;99671.59;;;24.19;47.90
55347;BME280;41218;55.700;38.270;2022-07-22T17:18:42;99625.78;;;22.64;54.76
55347;BME280;41218;55.700;38.270;2022-07-22T18:26:40;99687.50;;;21.43;57.46
55347;BME280;41218;55.700;38.270;2022-07-22T18:31:41;99683.41;;;21.31;57.25
55347;BME280;41218;55.700;38.270;2022-07-22T18:36:41;99674.69;;;21.13;57.73
55347;BME280;41218;55.700;38.270;2022-07-22T18:41:42;99686.91;;;21.06;57.49
55347;BME280;41218;55.700;38.270;2022-07-22T18:46:43;99693.59;;;20.96;57.49
55347;BME280;41218;55.700;38.270;2022-07-22T18:51:43;99675.81;;;20.70;57.28
55347;BME280;41218;55.700;38.270;2022-07-22T18:56:44;99663.47;;;20.51;57.60
55347;BME280;41218;55.700;38.270;2022-07-22T19:01:45;99689.28;;;20.62;58.09
55347;BME280;41218;55.700;38.270;2022-07-22T19:06:46;99691.97;;;20.49;58.13
55347;BME280;41218;55.700;38.270;2022-07-22T19:11:46;99695.47;;;20.37;58.36
55347;BME280;41218;55.700;38.270;2022-07-22T19:16:47;99664.31;;;19.98;58.44
55347;BME280;41218;55.700;38.270;2022-07-22T19:21:48;99701.28;;;20.13;58.37
55347;BME280;41218;55.700;38.270;2022-07-22T19:26:48;99650.88;;;19.73;58.72
55347;BME280;41218;55.700;38.270;2022-07-22T19:31:49;99697.72;;;19.93;58.59
55347;BME280;41218;55.700;38.270;2022-07-22T19:36:50;99658.28;;;19.64;58.74
55347;BME280;41218;55.700;38.270;2022-07-22T19:41:51;99678.97;;;19.70;58.97
55347;BME280;41218;55.700;38.270;2022-07-22T19:46:51;99687.50;;;19.62;59.08
55347;BME280;41218;55.700;38.270;2022-07-22T19:51:54;99680.66;;;19.47;59.18
55347;BME280;41218;55.700;38.270;2022-07-22T19:56:55;99676.13;;;19.33;59.50
55347;BME280;41218;55.700;38.270;2022-07-22T20:01:55;99687.34;;;19.33;59.69
55347;BME280;41218;55.700;38.270;2022-07-22T20:06:56;99696.38;;;19.21;59.63
55347;BME280;41218;55.700;38.270;2022-07-22T20:11:56;99654.69;;;18.83;59.75
55347;BME280;41218;55.700;38.270;2022-07-22T20:16:57;99697.25;;;18.98;60.01
55347;BME280;41218;55.700;38.270;2022-07-22T20:21:58;99718.41;;;18.99;59.95
55347;BME280;41218;55.700;38.270;2022-07-22T20:26:58;99707.56;;;18.77;59.86
55347;BME280;41218;55.700;38.270;2022-07-22T20:31:59;99712.06;;;18.71;60.42
55347;BME280;41218;55.700;38.270;2022-07-22T20:36:59;99722.75;;;18.80;60.17
55347;BME280;41218;55.700;38.270;2022-07-22T20:42:01;99721.88;;;18.59;60.24
55347;BME280;41218;55.700;38.270;2022-07-22T20:47:02;99727.28;;;18.47;60.55
55347;BME280;41218;55.700;38.270;2022-07-22T20:52:03;99730.81;;;18.51;60.31
55347;BME280;41218;55.700;38.270;2022-07-22T20:57:04;99735.44;;;18.37;60.51
55347;BME280;41218;55.700;38.270;2022-07-22T21:02:04;99744.19;;;18.39;60.40
55347;BME280;41218;55.700;38.270;2022-07-22T21:07:05;99742.81;;;18.24;60.58
55347;BME280;41218;55.700;38.270;2022-07-22T21:12:05;99747.56;;;18.27;60.55
55347;BME280;41218;55.700;38.270;2022-07-22T21:17:07;99743.81;;;18.10;60.56
55347;BME280;41218;55.700;38.270;2022-07-22T21:22:07;99747.84;;;18.09;60.53
55347;BME280;41218;55.700;38.270;2022-07-22T21:27:08;99747.34;;;17.87;61.03
55347;BME280;41218;55.700;38.270;2022-07-22T21:32:08;99750.09;;;17.91;60.94
55347;BME280;41218;55.700;38.270;2022-07-22T21:37:09;99751.81;;;17.77;61.05
55347;BME280;41218;55.700;38.270;2022-07-22T21:42:10;99747.38;;;17.80;60.89
55347;BME280;41218;55.700;38.270;2022-07-22T21:47:10;99742.13;;;17.55;61.29
55347;BME280;41218;55.700;38.270;2022-07-22T21:52:10;99756.41;;;17.64;61.47
55347;BME280;41218;55.700;38.270;2022-07-22T21:57:11;99754.19;;;17.48;61.54
55347;BME280;41218;55.700;38.270;2022-07-22T22:02:11;99759.34;;;17.50;61.43
55347;BME280;41218;55.700;38.270;2022-07-22T22:44:47;99767.22;;;16.79;62.95
55347;BME280;41218;55.700;38.270;2022-07-22T22:49:48;99790.25;;;16.94;62.84
55347;BME280;41218;55.700;38.270;2022-07-22T22:54:49;99766.09;;;16.69;62.98
55347;BME280;41218;55.700;38.270;2022-07-22T22:59:49;99789.53;;;16.82;62.94
55347;BME280;41218;55.700;38.270;2022-07-22T23:04:50;99780.84;;;16.70;63.18
55347;BME280;41218;55.700;38.270;2022-07-22T23:31:26;99788.59;;;16.44;64.24
55347;BME280;41218;55.700;38.270;2022-07-22T23:36:27;99779.13;;;16.31;64.78
55347;BME280;41218;55.700;38.270;2022-07-22T23:41:29;99801.44;;;16.34;64.67
55347;BME280;41218;55.700;38.270;2022-07-22T23:46:29;99796.66;;;16.31;64.71
55347;BME280;41218;55.700;38.270;2022-07-22T23:51:36;99794.31;;;16.22;65.52
55347;BME280;41218;55.700;38.270;2022-07-22T23:56:40;99793.56;;;16.18;65.32
